Kirchberg-Wetter.de


Hier erfahren Sie, wie das Wetter wird...


WebCam am Fuchsberg more information WebCam am Fuchsberg


Thunder radar more information blitzortung!


Rain radar more information rain snow radar


Besuchen Sie unsere anderen Wetter Stationen:

Template documentation
and downloads

And another site



Es liegt ein Kommunikationsproblem . Gehen Sie direkt zur Website Meteoalarm : www.meteoalarm.eu und überprüfen Sie die Wetterwarnungen..

METAR-Meldungen aus der Umgebung

   
EHVK - Volkel Rnlafb, Netherlands
Entfernung von der Station bis: SW 18 km
Aktualisierung: 30-01-2023 02:25
Nebel, Bewölkt  
Nebel, Bewölkt  
   Wind: WSW 27.8 km/h
Wind: WSW 27.8 km/h
Temperatur: 6°C
Gefühlt: 2°C
Taupunkt: 4°C
Luftfeuchte: 87%
Luftdruck: 1017 hPa
Bewölkt: Bewölkt
Sichtbarkeit: 8 km
Bewölkung: Bewölkt 800 ft
EHVK 300125Z AUTO 24015KT 210V270 8000 BR OVC008 06/04 Q1017 GRN
EDLV - Niederrhein, Germany
Entfernung von der Station bis: SO 25 km
Aktualisierung: 30-01-2023 02:20
Bewölkt  
Bewölkt  
   Wind: SW 22.2 km/h
Wind: SW 22.2 km/h
Temperatur: 5°C
Gefühlt: 1°C
Taupunkt: 3°C
Luftfeuchte: 87%
Luftdruck: 1017 hPa
Bewölkt: Bewölkt
Sichtbarkeit: 7 km
Bewölkung: Bewölkt 800 ft
EDLV 300120Z AUTO 23012KT 7000 // OVC008/// 05/03 Q1017
EHDL - Deelen Rnlafb, Netherlands
Entfernung von der Station bis: N 35 km
Aktualisierung: 30-01-2023 02:25
Nebel, Bewölkt  
Nebel, Bewölkt  
   Wind: SW 22.2 km/h
Wind: SW 22.2 km/h
Temperatur: 5°C
Gefühlt: 1°C
Taupunkt: 4°C
Luftfeuchte: 93%
Luftdruck: 1015 hPa
Bewölkt: Bewölkt
Sichtbarkeit: 6 km
Bewölkung: Bewölkt 600 ft
EHDL 300125Z AUTO 23012KT 140V290 6000 BR OVC006 05/04 Q1015 YLO
EHEH - Eindhoven Rnlafb, Netherlands
Entfernung von der Station bis: SW 48 km
Aktualisierung: 30-01-2023 02:25
Bewölkt  
Bewölkt  
   Wind: SW 29.6 km/h
Wind: SW 29.6 km/h
Temperatur: 6°C
Gefühlt: 2°C
Taupunkt: 4°C
Luftfeuchte: 87%
Luftdruck: 1018 hPa
Bewölkt: Bewölkt
Sichtbarkeit: More than 10 km
Bewölkung: Stark bewölkt 800 ft,
Bewölkt 900 ft
EHEH 300125Z AUTO 23016KT 210V270 9999 BKN008 OVC009 06/04 Q1018 GRN
EHGR - Gilze-Rijen Rnla, Netherlands
Entfernung von der Station bis: WSW 70 km
Aktualisierung: 30-01-2023 02:25
Bewölkt  
Bewölkt  
   Wind: WSW 18.5 km/h
Wind: WSW 18.5 km/h
Temperatur: 7°C
Gefühlt: 4°C
Taupunkt: 5°C
Luftfeuchte: 87%
Luftdruck: 1018 hPa
Bewölkt: Bewölkt
Sichtbarkeit: More than 10 km
Bewölkung: Stark bewölkt 900 ft,
Bewölkt 1100 ft
EHGR 300125Z AUTO 24010KT 210V270 9999 BKN009 OVC011 07/05 Q1018 GRN
EBBL - Kleine-Brogel(Ba, Belgium
Entfernung von der Station bis: SSW 71 km
Aktualisierung: 30-01-2023 02:25
Bewölkt  
Bewölkt  
   Wind: SW 29.6 km/h
Wind: SW 29.6 km/h
Temperatur: 4°C
Gefühlt: -1°C
Taupunkt: 3°C
Luftfeuchte: 93%
Luftdruck: 1019 hPa
Bewölkt: Bewölkt
Sichtbarkeit: 7 km
Bewölkung: Bewölkt 800 ft
EBBL 300125Z AUTO 23016KT 7000 OVC008/// 04/03 Q1019 GRN

Script entwickelt von  Saratoga-weather.org Angepasst für das Template von  Weerstation Leuven

Sie finden unser Wetter-Infos auch auf:

Weather Underground

WeatherlinkIP

Wetternetz-Sachsen

Von uns verwendete Ausrüstung:

Wetterstation
Davis Vantage Pro2 Plus

Wetterprogramm
Meteobridge

WetterComputer
TP-Link TL-MR3020

Davis Vantage Pro2 Plus

Meteobridge

TP-Link TL-MR3020